Time;durP1;ratioP1;P1;durP2;ratioP2;P2;SDS_P1;SDS_P2;PMS_P1;PMS_P2;Temp;Humidity;BMP_temperature;BMP_pressure;BME280_temperature;BME280_humidity;BME280_pressure;Samples;Min_cycle;Max_cycle;Signal;HPM_P1;HPM_P2
2022/12/02 00:00:22;;;;;;;23.90;11.23;;;-1.00;99.90;;;;;;4902704;29;20208;-78
2022/12/02 00:03:17;;;;;;;26.57;10.97;;;-0.90;99.90;;;;;;4909000;28;20290;-81
2022/12/02 00:06:00;;;;;;;22.90;10.47;;;-0.90;99.90;;;;;;4921147;29;20204;-77
2022/12/02 00:08:35;;;;;;;24.00;10.70;;;-0.90;99.90;;;;;;4937219;29;20221;-80
2022/12/02 00:11:19;;;;;;;20.33;10.53;;;-1.00;99.90;;;;;;4921151;29;20276;-82
2022/12/02 00:13:49;;;;;;;23.97;11.00;;;-1.00;99.90;;;;;;4937664;29;20641;-81
2022/12/02 00:16:24;;;;;;;26.50;11.57;;;-1.00;99.90;;;;;;4950344;28;20198;-83
2022/12/02 00:18:55;;;;;;;22.93;11.40;;;-1.00;99.90;;;;;;4975509;28;20288;-80
2022/12/02 00:21:23;;;;;;;20.07;10.87;;;-1.10;99.90;;;;;;4976053;28;20605;-80
2022/12/02 00:23:51;;;;;;;33.40;11.53;;;-1.10;99.90;;;;;;4975049;28;20626;-79
2022/12/02 00:26:20;;;;;;;23.43;11.07;;;-1.00;99.90;;;;;;4959236;28;20205;-83
2022/12/02 00:28:54;;;;;;;22.17;11.23;;;-0.90;99.90;;;;;;4959049;28;20192;-82
2022/12/02 00:31:27;;;;;;;21.33;10.73;;;-0.80;99.90;;;;;;4974837;28;20255;-84
2022/12/02 00:33:56;;;;;;;22.93;11.17;;;-1.00;99.90;;;;;;4975088;28;20203;-78
2022/12/02 00:36:30;;;;;;;20.73;10.23;;;-1.00;99.90;;;;;;4974996;28;20223;-79
2022/12/02 00:38:58;;;;;;;22.53;11.27;;;-1.00;99.90;;;;;;4958953;28;20197;-77
2022/12/02 00:41:28;;;;;;;19.43;10.87;;;-0.90;99.90;;;;;;4974437;28;20301;-78
2022/12/02 00:47:01;;;;;;;24.97;10.93;;;-1.10;99.90;;;;;;5050790;28;20252;-79
2022/12/02 00:49:32;;;;;;;21.37;10.53;;;-1.10;99.90;;;;;;5030924;28;20198;-78
2022/12/02 00:51:59;;;;;;;22.03;11.03;;;-1.10;99.90;;;;;;5030929;28;20205;-81
2022/12/02 00:54:27;;;;;;;23.73;10.90;;;-1.10;99.90;;;;;;5031286;28;20218;-79
2022/12/02 00:56:54;;;;;;;20.97;10.43;;;-1.20;99.90;;;;;;5030263;28;20212;-79
2022/12/02 00:59:22;;;;;;;22.63;11.00;;;-1.20;99.90;;;;;;5031811;28;20691;-80
2022/12/02 01:01:49;;;;;;;21.57;10.67;;;-1.30;99.90;;;;;;5031011;28;20193;-82
2022/12/02 01:04:30;;;;;;;23.20;11.00;;;-1.30;99.90;;;;;;5031059;28;20194;-78
2022/12/02 01:07:42;;;;;;;22.77;11.23;;;-1.30;99.90;;;;;;5031456;28;20240;-78
2022/12/02 01:10:42;;;;;;;25.00;11.27;;;-1.20;99.90;;;;;;5111482;27;20585;-82
2022/12/02 01:13:42;;;;;;;22.00;10.43;;;-1.20;99.90;;;;;;5093079;28;20192;-78
2022/12/02 01:16:30;;;;;;;17.83;9.27;;;-1.10;99.90;;;;;;5092518;28;20203;-79
2022/12/02 01:18:58;;;;;;;22.43;10.47;;;-1.00;99.90;;;;;;5092521;28;20203;-79
2022/12/02 01:21:25;;;;;;;25.13;10.57;;;-1.10;99.90;;;;;;5127298;28;20651;-79
2022/12/02 01:23:53;;;;;;;19.70;10.43;;;-1.10;99.90;;;;;;5126822;28;20193;-80
2022/12/02 01:26:23;;;;;;;22.23;10.80;;;-1.00;99.90;;;;;;5092809;28;20208;-81
2022/12/02 01:29:02;;;;;;;21.50;10.00;;;-0.90;99.90;;;;;;5126525;27;20217;-82
2022/12/02 01:31:30;;;;;;;21.00;11.03;;;-0.90;99.90;;;;;;5092556;28;20251;-80
2022/12/02 01:33:58;;;;;;;21.50;10.60;;;-0.70;99.90;;;;;;5092580;28;20235;-81
2022/12/02 01:36:25;;;;;;;23.27;10.60;;;-0.90;99.90;;;;;;5092721;28;20197;-81
2022/12/02 01:38:53;;;;;;;21.27;10.80;;;-1.00;99.90;;;;;;5092437;28;20197;-80
2022/12/02 01:41:20;;;;;;;20.77;10.63;;;-1.00;99.90;;;;;;5092677;28;20209;-79
2022/12/02 01:43:49;;;;;;;20.07;10.27;;;-0.90;99.90;;;;;;5111055;28;20173;-79
2022/12/02 01:46:16;;;;;;;20.70;10.23;;;-0.90;99.90;;;;;;5092518;28;20182;-78
2022/12/02 01:48:44;;;;;;;25.83;10.73;;;-1.00;99.90;;;;;;5092465;28;20215;-81
2022/12/02 01:51:12;;;;;;;24.70;10.80;;;-0.90;99.90;;;;;;5101852;28;20729;-79
2022/12/02 01:53:43;;;;;;;25.17;10.90;;;-0.90;99.90;;;;;;5127079;27;20198;-83
2022/12/02 01:56:14;;;;;;;25.20;12.30;;;-1.00;99.90;;;;;;5126372;28;20728;-81
2022/12/02 01:58:44;;;;;;;21.63;10.30;;;-1.00;99.90;;;;;;5126340;28;20590;-79
2022/12/02 02:01:31;;;;;;;19.00;10.20;;;-1.00;99.90;;;;;;5099839;28;20200;-80
2022/12/02 02:04:06;;;;;;;22.53;11.17;;;-0.90;99.90;;;;;;5108986;28;20505;-78
2022/12/02 02:06:40;;;;;;;21.00;10.70;;;-1.00;99.90;;;;;;5109796;28;20186;-79
2022/12/02 02:09:14;;;;;;;21.10;10.73;;;-1.00;99.90;;;;;;5108502;28;20241;-78
2022/12/02 02:11:44;;;;;;;25.97;11.13;;;-1.00;99.90;;;;;;5109720;28;20186;-87
2022/12/02 02:14:14;;;;;;;20.83;10.73;;;-0.90;99.90;;;;;;5110112;27;20703;-84
2022/12/02 02:16:45;;;;;;;20.07;11.07;;;-0.90;99.90;;;;;;5108325;28;20200;-85
2022/12/02 02:19:13;;;;;;;20.90;10.87;;;-0.90;99.90;;;;;;5108349;28;20194;-85
2022/12/02 02:21:47;;;;;;;24.63;11.67;;;-1.00;99.90;;;;;;5079982;28;20585;-82
2022/12/02 02:24:23;;;;;;;20.87;10.10;;;-1.10;99.90;;;;;;5096149;28;20187;-83
2022/12/02 02:26:52;;;;;;;22.87;10.87;;;-1.20;99.90;;;;;;5094990;28;20332;-86
2022/12/02 02:29:20;;;;;;;24.17;10.73;;;-1.10;99.90;;;;;;5094601;28;20250;-81
2022/12/02 02:31:51;;;;;;;22.53;10.87;;;-1.10;99.90;;;;;;5094527;28;20195;-84
2022/12/02 02:34:18;;;;;;;21.23;10.37;;;-1.10;99.90;;;;;;5094463;28;20191;-85
2022/12/02 02:36:48;;;;;;;21.43;11.17;;;-1.20;99.90;;;;;;5094479;28;20267;-84
2022/12/02 02:39:22;;;;;;;20.30;11.00;;;-1.20;99.90;;;;;;5094164;28;20199;-83
2022/12/02 02:42:18;;;;;;;18.30;10.60;;;-1.20;99.90;;;;;;5078046;28;20207;-83
2022/12/02 02:44:50;;;;;;;31.77;12.23;;;-1.10;99.90;;;;;;5076029;28;20233;-82
2022/12/02 02:47:18;;;;;;;23.30;11.00;;;-1.10;99.90;;;;;;5076848;28;20204;-83
2022/12/02 02:49:45;;;;;;;22.13;11.10;;;-1.20;99.90;;;;;;5093195;28;20540;-86
2022/12/02 02:52:13;;;;;;;24.57;11.20;;;-1.10;99.90;;;;;;5094293;28;20228;-86
2022/12/02 02:54:41;;;;;;;23.60;11.20;;;-1.10;99.90;;;;;;5076604;28;20590;-86
2022/12/02 02:57:08;;;;;;;20.40;10.67;;;-1.10;99.90;;;;;;5076626;28;20724;-81
2022/12/02 02:59:40;;;;;;;25.70;11.93;;;-1.10;99.90;;;;;;5076407;28;20260;-80
2022/12/02 03:02:11;;;;;;;22.37;11.57;;;-1.20;99.90;;;;;;5093170;28;20196;-80
2022/12/02 03:04:41;;;;;;;21.97;10.93;;;-1.10;99.90;;;;;;5075801;28;20683;-81
2022/12/02 03:07:08;;;;;;;20.63;11.03;;;-1.10;99.90;;;;;;5093153;28;20180;-78
2022/12/02 03:09:36;;;;;;;22.93;11.57;;;-1.10;99.90;;;;;;5088149;28;20236;-76
2022/12/02 03:12:04;;;;;;;29.50;12.93;;;-1.20;99.90;;;;;;5077108;28;20207;-78
2022/12/02 03:14:31;;;;;;;23.27;11.60;;;-1.10;99.90;;;;;;5095826;28;20240;-78
2022/12/02 03:17:01;;;;;;;23.23;11.33;;;-1.20;99.90;;;;;;5094029;28;20192;-77
2022/12/02 03:19:36;;;;;;;22.13;11.70;;;-1.20;99.90;;;;;;5093737;28;20201;-77
2022/12/02 03:22:04;;;;;;;26.17;11.97;;;-1.30;99.90;;;;;;5093730;28;20197;-78
2022/12/02 03:24:32;;;;;;;22.07;11.77;;;-1.30;99.90;;;;;;5094759;28;20616;-78
2022/12/02 03:27:02;;;;;;;28.30;12.77;;;-1.30;99.90;;;;;;5093626;28;20341;-78
2022/12/02 03:29:33;;;;;;;24.83;12.20;;;-1.30;99.90;;;;;;5093622;28;20550;-81
2022/12/02 03:32:01;;;;;;;27.27;12.00;;;-1.20;99.90;;;;;;5092791;28;20644;-78
2022/12/02 03:34:29;;;;;;;25.47;12.10;;;-1.20;99.90;;;;;;5076570;28;20202;-78
2022/12/02 03:36:58;;;;;;;25.00;13.07;;;-1.20;99.90;;;;;;5095090;28;20189;-81
2022/12/02 03:39:28;;;;;;;23.60;12.17;;;-1.20;99.90;;;;;;5094739;28;20612;-78
2022/12/02 03:41:56;;;;;;;25.70;13.07;;;-1.20;99.90;;;;;;5094001;28;20199;-79
2022/12/02 03:44:26;;;;;;;26.17;13.33;;;-1.20;99.90;;;;;;5095178;28;20189;-78
2022/12/02 03:46:54;;;;;;;23.67;12.47;;;-1.30;99.90;;;;;;5093472;28;20190;-78
2022/12/02 03:49:23;;;;;;;24.27;12.43;;;-1.20;99.90;;;;;;5076255;28;20232;-79
2022/12/02 03:51:50;;;;;;;25.83;13.03;;;-1.20;99.90;;;;;;5094249;28;20221;-79
2022/12/02 03:54:18;;;;;;;26.27;13.27;;;-1.10;99.90;;;;;;5093408;28;20197;-79
2022/12/02 03:56:46;;;;;;;28.73;13.17;;;-1.10;99.90;;;;;;5093261;28;20189;-79
2022/12/02 03:59:20;;;;;;;27.70;13.60;;;-1.10;99.90;;;;;;5094312;28;20187;-81
2022/12/02 04:01:47;;;;;;;28.30;13.13;;;-1.00;99.90;;;;;;5094257;28;20190;-80
2022/12/02 04:04:15;;;;;;;27.27;13.37;;;-1.10;99.90;;;;;;5092658;28;20197;-80
2022/12/02 04:06:42;;;;;;;24.83;13.40;;;-1.00;99.90;;;;;;5092749;28;20600;-80
2022/12/02 04:09:12;;;;;;;27.90;13.90;;;-1.10;99.90;;;;;;5093780;28;20224;-80
2022/12/02 04:11:39;;;;;;;30.40;14.57;;;-1.00;99.90;;;;;;5076270;28;20291;-77
2022/12/02 04:14:07;;;;;;;30.03;14.20;;;-1.00;99.90;;;;;;5075993;28;20193;-81
2022/12/02 04:16:34;;;;;;;32.30;14.43;;;-0.90;99.90;;;;;;5094157;28;20552;-77
2022/12/02 04:19:01;;;;;;;32.30;14.93;;;-1.00;99.90;;;;;;5093410;28;20544;-79
2022/12/02 04:21:28;;;;;;;33.20;15.30;;;-1.10;99.90;;;;;;5092431;28;20251;-80
2022/12/02 04:23:55;;;;;;;36.90;14.57;;;-1.20;99.90;;;;;;5093817;28;20190;-80
2022/12/02 04:26:22;;;;;;;30.93;15.27;;;-1.10;99.90;;;;;;5093716;28;20548;-80
2022/12/02 04:28:51;;;;;;;33.33;14.97;;;-1.10;99.90;;;;;;5093688;28;20191;-80
2022/12/02 04:31:18;;;;;;;29.17;15.13;;;-1.00;99.90;;;;;;5093941;28;20234;-81
2022/12/02 04:33:45;;;;;;;31.90;15.57;;;-0.90;99.90;;;;;;5092342;28;20201;-82
2022/12/02 04:36:15;;;;;;;34.70;15.53;;;-0.90;99.90;;;;;;5093195;28;20296;-80
2022/12/02 04:38:42;;;;;;;33.03;15.67;;;-0.90;99.90;;;;;;5092329;28;20194;-81
2022/12/02 04:41:10;;;;;;;31.43;15.23;;;-0.90;99.90;;;;;;5092571;28;20584;-80
2022/12/02 04:43:37;;;;;;;29.93;14.17;;;-0.90;99.90;;;;;;5093470;28;20214;-84
2022/12/02 04:46:04;;;;;;;29.77;14.40;;;-0.90;99.90;;;;;;5092463;28;20206;-80
2022/12/02 04:48:31;;;;;;;33.17;15.43;;;-0.80;99.90;;;;;;5093513;28;20216;-84
2022/12/02 04:50:59;;;;;;;33.67;14.50;;;-0.90;99.90;;;;;;5094096;28;20697;-83
2022/12/02 04:53:26;;;;;;;30.33;14.53;;;-1.00;99.90;;;;;;5092447;28;20184;-79
2022/12/02 04:55:53;;;;;;;26.30;13.83;;;-1.10;99.90;;;;;;5091873;28;20244;-81
2022/12/02 04:58:20;;;;;;;27.87;13.60;;;-1.10;99.90;;;;;;5092487;28;20538;-81
2022/12/02 05:00:47;;;;;;;24.33;13.20;;;-1.00;99.90;;;;;;5091960;28;20202;-81
2022/12/02 05:03:15;;;;;;;31.73;14.07;;;-1.10;99.90;;;;;;5091869;28;20572;-80
2022/12/02 05:05:42;;;;;;;26.43;13.30;;;-1.10;99.90;;;;;;5091935;28;20198;-80
2022/12/02 05:08:10;;;;;;;26.93;12.73;;;-1.10;99.90;;;;;;5092950;28;20246;-79
2022/12/02 05:10:37;;;;;;;28.13;13.37;;;-1.20;99.90;;;;;;5091537;28;20294;-79
2022/12/02 05:13:05;;;;;;;25.67;13.20;;;-1.20;99.90;;;;;;5092311;28;20235;-80
2022/12/02 05:15:32;;;;;;;26.20;12.30;;;-1.20;99.90;;;;;;5092030;28;20650;-80
2022/12/02 05:17:59;;;;;;;27.20;13.13;;;-1.20;99.90;;;;;;5092113;28;20202;-80
2022/12/02 05:20:27;;;;;;;31.33;13.40;;;-1.20;99.90;;;;;;5091773;28;20231;-79
2022/12/02 05:22:54;;;;;;;25.10;12.60;;;-1.30;99.90;;;;;;5092082;28;20193;-79
2022/12/02 05:25:22;;;;;;;21.23;11.57;;;-1.30;99.90;;;;;;5092943;28;20213;-80
2022/12/02 05:27:50;;;;;;;27.53;12.20;;;-1.20;99.90;;;;;;5075616;28;20222;-79
2022/12/02 05:30:17;;;;;;;25.57;12.77;;;-1.30;99.90;;;;;;5074929;28;20217;-79
2022/12/02 05:32:44;;;;;;;22.37;11.07;;;-1.20;99.90;;;;;;5092208;28;20200;-81
2022/12/02 05:35:11;;;;;;;25.63;11.87;;;-1.20;99.90;;;;;;5092008;28;20188;-81
2022/12/02 05:37:39;;;;;;;25.53;11.67;;;-1.20;99.90;;;;;;5093725;28;20258;-82
2022/12/02 05:40:07;;;;;;;24.17;12.33;;;-1.20;99.90;;;;;;5092894;28;20206;-82
2022/12/02 05:42:34;;;;;;;25.90;12.23;;;-1.20;99.90;;;;;;5091870;28;20195;-82
2022/12/02 05:45:12;;;;;;;22.80;11.90;;;-1.30;99.90;;;;;;5091478;28;20213;-82
2022/12/02 05:47:40;;;;;;;24.73;11.77;;;-1.30;99.90;;;;;;5091933;28;20236;-80
2022/12/02 05:50:12;;;;;;;25.63;11.93;;;-1.20;99.90;;;;;;5075403;28;20259;-81
2022/12/02 05:52:39;;;;;;;22.63;11.47;;;-1.20;99.90;;;;;;5091987;28;20192;-81
2022/12/02 05:55:18;;;;;;;25.83;11.70;;;-1.30;99.90;;;;;;5091373;28;20203;-81
2022/12/02 05:57:46;;;;;;;23.97;11.97;;;-1.30;99.90;;;;;;5095575;28;20593;-81
2022/12/02 06:00:19;;;;;;;25.03;11.60;;;-1.30;99.90;;;;;;5095325;28;20217;-82
2022/12/02 06:02:52;;;;;;;27.73;11.63;;;-1.30;99.90;;;;;;5095702;28;20217;-82
2022/12/02 06:05:26;;;;;;;27.00;12.40;;;-1.30;99.90;;;;;;5094929;28;20249;-80
2022/12/02 06:07:57;;;;;;;21.83;11.77;;;-1.30;99.90;;;;;;5096147;28;20215;-81
2022/12/02 06:10:28;;;;;;;21.37;11.50;;;-1.30;99.90;;;;;;5094717;28;20231;-80
2022/12/02 06:12:59;;;;;;;26.63;12.33;;;-1.20;99.90;;;;;;5096511;28;20247;-81
2022/12/02 06:15:35;;;;;;;22.73;11.67;;;-1.30;99.90;;;;;;5094792;28;20197;-80
2022/12/02 06:18:14;;;;;;;20.07;11.00;;;-1.40;99.90;;;;;;5094940;28;20198;-80
2022/12/02 06:20:43;;;;;;;25.33;11.63;;;-1.30;99.90;;;;;;5096187;28;20246;-80
2022/12/02 06:23:14;;;;;;;25.70;10.93;;;-1.40;99.90;;;;;;5077989;28;20667;-82
2022/12/02 06:25:45;;;;;;;25.60;11.70;;;-1.40;99.90;;;;;;5094638;28;20267;-80
2022/12/02 06:28:27;;;;;;;23.70;11.53;;;-1.40;99.90;;;;;;5094848;28;20195;-80
2022/12/02 06:30:57;;;;;;;23.43;11.23;;;-1.40;99.90;;;;;;5080167;28;20213;-81
2022/12/02 06:33:32;;;;;;;23.83;11.43;;;-1.40;99.90;;;;;;5074749;28;20222;-81
2022/12/02 06:36:03;;;;;;;21.80;11.40;;;-1.30;99.90;;;;;;5074137;28;20197;-82
2022/12/02 06:38:35;;;;;;;22.47;10.73;;;-1.40;99.90;;;;;;5074710;28;20218;-80
2022/12/02 06:41:22;;;;;;;24.23;11.80;;;-1.40;99.90;;;;;;5074305;28;20555;-81
2022/12/02 06:46:36;;;;;;;23.37;11.57;;;-1.50;99.90;;;;;;5075247;28;20243;-79
2022/12/02 06:49:18;;;;;;;28.80;12.10;;;-1.40;99.90;;;;;;5074643;28;20244;-80
2022/12/02 06:51:56;;;;;;;23.23;11.83;;;-1.60;99.90;;;;;;5073838;28;20707;-78
2022/12/02 06:54:28;;;;;;;27.23;12.43;;;-1.60;99.90;;;;;;5074033;28;20193;-80
2022/12/02 06:56:58;;;;;;;23.20;12.13;;;-1.60;99.90;;;;;;5073796;28;20205;-80
2022/12/02 06:59:26;;;;;;;23.07;12.23;;;-1.70;99.90;;;;;;5073643;28;20200;-78
2022/12/02 07:01:56;;;;;;;23.73;12.03;;;-1.70;99.90;;;;;;5073718;28;20235;-80
2022/12/02 07:04:37;;;;;;;25.03;12.23;;;-1.80;99.90;;;;;;5073625;28;20203;-79
2022/12/02 07:07:21;;;;;;;24.83;11.90;;;-1.70;99.90;;;;;;5074926;28;20199;-81
2022/12/02 07:10:00;;;;;;;23.50;12.20;;;-1.60;99.90;;;;;;5072852;28;20242;-82
2022/12/02 07:12:41;;;;;;;24.83;12.63;;;-1.60;99.90;;;;;;5073756;28;20196;-80
2022/12/02 07:15:26;;;;;;;25.43;12.67;;;-1.60;99.90;;;;;;5082162;28;20198;-80
2022/12/02 07:18:18;;;;;;;24.57;12.57;;;-1.50;99.90;;;;;;5093419;28;20198;-81
2022/12/02 07:20:55;;;;;;;27.10;12.80;;;-1.40;99.90;;;;;;5093268;28;20202;-80
2022/12/02 07:23:27;;;;;;;26.63;13.20;;;-1.40;99.90;;;;;;5093595;28;20222;-81
2022/12/02 07:25:56;;;;;;;30.57;14.00;;;-1.30;99.90;;;;;;5093256;28;20298;-80
2022/12/02 07:28:39;;;;;;;28.97;13.07;;;-1.40;99.90;;;;;;5094075;28;20209;-82
2022/12/02 07:31:20;;;;;;;24.27;12.70;;;-1.40;99.90;;;;;;5077898;28;20207;-81
2022/12/02 07:33:48;;;;;;;27.57;13.40;;;-1.40;99.90;;;;;;5074239;28;20774;-81
2022/12/02 07:36:16;;;;;;;28.73;14.40;;;-1.40;99.90;;;;;;5074198;28;20194;-82
2022/12/02 07:38:43;;;;;;;28.63;14.03;;;-1.50;99.90;;;;;;5074378;28;20190;-82
2022/12/02 07:41:30;;;;;;;26.70;14.00;;;-1.60;99.90;;;;;;5072579;28;20220;-80
2022/12/02 07:44:03;;;;;;;29.97;12.90;;;-1.60;99.90;;;;;;5057604;28;20199;-81
2022/12/02 07:46:30;;;;;;;25.13;13.20;;;-1.70;99.90;;;;;;5072582;28;20256;-81
2022/12/02 07:48:57;;;;;;;31.37;13.87;;;-1.70;99.90;;;;;;5072725;28;20252;-81
2022/12/02 07:51:25;;;;;;;27.17;13.23;;;-1.80;99.90;;;;;;5092180;28;20263;-81
2022/12/02 07:53:52;;;;;;;29.40;13.60;;;-1.70;99.90;;;;;;5093025;28;20256;-82
2022/12/02 07:56:19;;;;;;;27.97;14.00;;;-1.80;99.90;;;;;;5092791;28;20264;-81
2022/12/02 07:58:46;;;;;;;27.13;13.77;;;-1.80;99.90;;;;;;5093015;28;20202;-82
2022/12/02 08:01:34;;;;;;;31.63;14.07;;;-1.80;99.90;;;;;;5074131;28;20268;-80
2022/12/02 08:04:01;;;;;;;27.17;14.20;;;-1.80;99.90;;;;;;5072483;28;20205;-81
2022/12/02 08:06:28;;;;;;;33.60;14.33;;;-1.70;99.90;;;;;;5092307;28;20205;-81
2022/12/02 08:09:02;;;;;;;30.77;13.33;;;-1.70;99.90;;;;;;5092441;28;20272;-81
2022/12/02 08:11:32;;;;;;;31.80;13.77;;;-1.50;99.90;;;;;;5072248;28;20235;-80
2022/12/02 08:13:59;;;;;;;25.23;12.60;;;-1.60;99.90;;;;;;5072409;28;20210;-79
2022/12/02 08:16:27;;;;;;;32.77;13.80;;;-1.70;99.90;;;;;;5073569;28;20185;-80
2022/12/02 08:18:54;;;;;;;28.07;13.27;;;-1.70;99.90;;;;;;5081227;28;20191;-81
2022/12/02 08:21:22;;;;;;;34.57;13.70;;;-1.80;99.90;;;;;;5090970;28;20236;-80
2022/12/02 08:23:49;;;;;;;32.17;14.63;;;-1.80;99.90;;;;;;5092413;28;20548;-80
2022/12/02 08:26:16;;;;;;;28.50;14.53;;;-1.80;99.90;;;;;;5085230;28;20209;-79
2022/12/02 08:28:58;;;;;;;29.33;14.03;;;-1.70;99.90;;;;;;5085638;28;20209;-80
2022/12/02 08:31:26;;;;;;;28.90;14.63;;;-1.60;99.90;;;;;;5082739;28;20596;-79
2022/12/02 08:33:54;;;;;;;34.30;14.57;;;-1.60;99.90;;;;;;5080416;28;20290;-79
2022/12/02 08:36:22;;;;;;;31.43;15.13;;;-1.60;99.90;;;;;;5074427;28;20201;-74
2022/12/02 08:38:50;;;;;;;34.93;14.70;;;-1.70;99.90;;;;;;5071800;28;20238;-84
2022/12/02 08:41:17;;;;;;;36.17;15.07;;;-1.80;99.90;;;;;;5071967;28;20206;-81
2022/12/02 08:43:50;;;;;;;33.30;15.57;;;-1.80;99.90;;;;;;5072907;28;20527;-77
2022/12/02 08:46:21;;;;;;;40.00;16.10;;;-1.90;99.90;;;;;;5086761;28;20591;-80
2022/12/02 08:48:49;;;;;;;36.67;16.10;;;-1.90;99.90;;;;;;5092215;28;20202;-84
2022/12/02 08:51:16;;;;;;;34.73;15.50;;;-1.90;99.90;;;;;;5091874;28;20709;-76
2022/12/02 08:53:44;;;;;;;34.80;15.70;;;-1.90;99.90;;;;;;5083779;28;20187;-80
2022/12/02 08:56:11;;;;;;;30.67;15.43;;;-1.90;99.90;;;;;;5081467;28;20643;-78
2022/12/02 08:58:38;;;;;;;38.10;15.13;;;-1.90;99.90;;;;;;5077126;28;20197;-77
2022/12/02 09:01:05;;;;;;;32.00;14.60;;;-1.90;99.90;;;;;;5091930;28;20594;-77
2022/12/02 09:03:33;;;;;;;32.27;14.87;;;-1.80;99.90;;;;;;5084603;28;20227;-73
2022/12/02 09:06:00;;;;;;;34.30;14.67;;;-1.80;99.90;;;;;;5054588;28;20252;-71
2022/12/02 09:08:27;;;;;;;34.90;14.37;;;-1.70;99.90;;;;;;5073652;28;20224;-72
2022/12/02 09:10:55;;;;;;;33.53;14.57;;;-1.80;99.90;;;;;;5082499;28;20235;-81
2022/12/02 09:13:22;;;;;;;33.33;14.13;;;-1.90;99.90;;;;;;5072732;28;20268;-75
2022/12/02 09:15:49;;;;;;;34.13;14.30;;;-1.80;99.90;;;;;;5071592;28;20194;-79
2022/12/02 09:18:16;;;;;;;33.07;14.23;;;-1.90;99.90;;;;;;5071655;28;20228;-78
2022/12/02 09:20:44;;;;;;;32.57;14.13;;;-1.80;99.90;;;;;;5071854;28;20194;-73
2022/12/02 09:23:11;;;;;;;29.07;14.13;;;-1.90;99.90;;;;;;5054732;28;20229;-76
2022/12/02 09:25:38;;;;;;;33.17;13.97;;;-2.00;99.90;;;;;;5071542;28;20205;-75
2022/12/02 09:28:05;;;;;;;34.83;13.73;;;-2.00;99.90;;;;;;5071636;28;20199;-73
2022/12/02 09:30:32;;;;;;;32.03;14.60;;;-2.00;99.90;;;;;;5072590;28;20293;-78
2022/12/02 09:32:59;;;;;;;29.70;13.03;;;-2.00;99.90;;;;;;5075594;28;20208;-77
2022/12/02 09:35:26;;;;;;;33.93;14.40;;;-2.00;99.90;;;;;;5076551;28;20190;-78
2022/12/02 09:37:53;;;;;;;34.10;13.27;;;-2.10;99.90;;;;;;5077139;28;20650;-82
2022/12/02 09:40:21;;;;;;;28.13;12.90;;;-1.90;99.90;;;;;;5075376;28;20663;-75
2022/12/02 09:42:51;;;;;;;33.07;14.17;;;-1.90;99.90;;;;;;5075554;28;20614;-80
2022/12/02 09:45:18;;;;;;;30.23;13.57;;;-2.00;99.90;;;;;;5075285;28;20207;-82
2022/12/02 09:47:46;;;;;;;30.57;13.57;;;-2.00;99.90;;;;;;5076909;28;20187;-82
2022/12/02 09:50:13;;;;;;;30.47;13.33;;;-2.00;99.90;;;;;;5075082;28;20645;-83
2022/12/02 09:52:41;;;;;;;30.23;13.93;;;-1.90;99.90;;;;;;5075032;28;20218;-75
2022/12/02 09:55:13;;;;;;;34.10;14.33;;;-1.90;99.90;;;;;;5074645;28;20201;-80
2022/12/02 09:57:41;;;;;;;29.60;13.43;;;-2.00;99.90;;;;;;5074887;28;20204;-75
2022/12/02 10:00:15;;;;;;;30.53;13.33;;;-2.10;99.90;;;;;;5075103;28;20555;-73
2022/12/02 10:02:45;;;;;;;33.30;14.20;;;-2.00;99.90;;;;;;5074798;28;20190;-74
2022/12/02 10:05:16;;;;;;;35.43;14.67;;;-2.00;99.90;;;;;;5074658;28;20586;-75
2022/12/02 10:07:46;;;;;;;29.93;14.07;;;-1.90;99.90;;;;;;5058462;28;20674;-75
2022/12/02 10:10:18;;;;;;;34.87;14.83;;;-1.90;99.90;;;;;;5074156;28;20586;-74
2022/12/02 10:12:46;;;;;;;33.23;14.70;;;-2.00;99.90;;;;;;5075042;28;20662;-76
2022/12/02 10:15:20;;;;;;;29.20;13.80;;;-2.00;99.90;;;;;;5074437;28;20626;-77
2022/12/02 10:17:47;;;;;;;32.83;14.27;;;-1.90;99.90;;;;;;5076210;28;20506;-79
2022/12/02 10:20:27;;;;;;;29.97;14.47;;;-1.90;99.90;;;;;;5079726;28;20197;-79
2022/12/02 10:23:18;;;;;;;33.23;13.87;;;-1.80;99.90;;;;;;5089613;28;20182;-81
2022/12/02 10:25:57;;;;;;;33.10;14.50;;;-1.80;99.90;;;;;;5090111;28;20582;-82
2022/12/02 10:28:34;;;;;;;30.17;14.90;;;-1.90;99.90;;;;;;5091884;28;20555;-77
2022/12/02 10:31:08;;;;;;;31.67;14.27;;;-1.80;99.90;;;;;;5095769;28;20255;-74
2022/12/02 10:33:51;;;;;;;31.33;13.63;;;-1.80;99.90;;;;;;5095463;28;20642;-74
2022/12/02 10:36:36;;;;;;;34.37;14.50;;;-1.80;99.90;;;;;;5095546;28;20215;-71
2022/12/02 10:39:22;;;;;;;32.60;14.70;;;-1.80;99.90;;;;;;5094173;28;20217;-73
2022/12/02 10:42:02;;;;;;;32.73;15.13;;;-1.70;99.90;;;;;;5093611;28;20250;-74
2022/12/02 10:44:36;;;;;;;30.70;15.07;;;-1.80;99.90;;;;;;5094007;28;20360;-72
2022/12/02 10:47:18;;;;;;;29.10;14.43;;;-1.80;99.90;;;;;;5094075;28;20194;-77
2022/12/02 10:49:59;;;;;;;29.27;14.37;;;-1.80;99.90;;;;;;5093942;28;20194;-78
2022/12/02 10:52:41;;;;;;;30.87;15.03;;;-1.90;99.90;;;;;;5093876;28;20274;-75
2022/12/02 10:55:11;;;;;;;33.87;15.50;;;-2.00;99.90;;;;;;5093705;28;20715;-79
2022/12/02 10:57:42;;;;;;;32.33;14.77;;;-2.00;99.90;;;;;;5095045;28;20190;-74
2022/12/02 11:00:21;;;;;;;34.43;15.03;;;-1.90;99.90;;;;;;5093520;28;20225;-74
2022/12/02 11:02:56;;;;;;;31.13;14.50;;;-2.00;99.90;;;;;;5093399;28;20654;-75
2022/12/02 11:05:31;;;;;;;33.20;14.50;;;-1.90;99.90;;;;;;5093745;28;20194;-77
2022/12/02 11:08:26;;;;;;;29.87;14.03;;;-1.90;99.90;;;;;;5093914;28;20545;-74
2022/12/02 11:11:36;;;;;;;31.30;14.70;;;-2.00;99.90;;;;;;5093327;28;20273;-76
2022/12/02 11:14:33;;;;;;;33.37;14.43;;;-1.80;99.90;;;;;;5012590;28;20274;-73
2022/12/02 11:17:12;;;;;;;28.93;14.37;;;-1.80;99.90;;;;;;4996422;28;20417;-78
2022/12/02 11:19:45;;;;;;;29.93;14.33;;;-1.80;99.90;;;;;;5009989;28;20641;-80
2022/12/02 11:22:47;;;;;;;33.53;15.23;;;-1.80;99.90;;;;;;4993443;28;20554;-73
2022/12/02 11:25:42;;;;;;;31.37;14.93;;;-1.90;99.90;;;;;;4982117;28;20192;-74
2022/12/02 11:28:34;;;;;;;35.13;15.37;;;-1.90;99.90;;;;;;4996460;28;20192;-79
2022/12/02 11:31:11;;;;;;;31.80;15.10;;;-1.90;99.90;;;;;;4996277;28;20201;-74
2022/12/02 11:33:47;;;;;;;31.13;14.30;;;-1.80;99.90;;;;;;4979626;28;20188;-84
2022/12/02 11:36:24;;;;;;;36.10;15.23;;;-1.90;99.90;;;;;;4994079;28;20236;-73
2022/12/02 11:38:55;;;;;;;34.43;15.00;;;-1.80;99.90;;;;;;5011752;28;20203;-71
2022/12/02 11:41:28;;;;;;;34.27;15.93;;;-1.90;99.90;;;;;;4982997;28;20301;-76
2022/12/02 11:43:58;;;;;;;32.77;15.30;;;-1.80;99.90;;;;;;4999234;28;20207;-79
2022/12/02 11:46:41;;;;;;;35.13;15.47;;;-1.80;99.90;;;;;;5005300;28;20202;-73
2022/12/02 11:49:30;;;;;;;34.47;15.60;;;-1.90;99.90;;;;;;4988660;28;20224;-74
2022/12/02 11:52:10;;;;;;;35.53;15.20;;;-2.00;99.90;;;;;;5073360;28;20309;-75
2022/12/02 11:54:45;;;;;;;35.40;15.07;;;-2.10;99.90;;;;;;5071830;28;20215;-74
2022/12/02 11:57:28;;;;;;;34.20;15.13;;;-2.00;99.90;;;;;;5080243;28;20186;-75
2022/12/02 11:59:56;;;;;;;36.03;14.97;;;-2.00;99.90;;;;;;5080638;28;20195;-77
2022/12/02 12:02:24;;;;;;;32.83;15.23;;;-1.90;99.90;;;;;;5091270;28;20201;-82
2022/12/02 12:05:04;;;;;;;34.83;15.97;;;-1.80;99.90;;;;;;5092975;28;20189;-80
2022/12/02 12:07:46;;;;;;;36.70;15.63;;;-1.80;99.90;;;;;;5084352;28;20252;-72
2022/12/02 12:10:38;;;;;;;36.83;16.10;;;-1.90;99.90;;;;;;5105611;28;20230;-78
2022/12/02 12:13:14;;;;;;;36.80;15.47;;;-2.00;99.90;;;;;;5092024;28;20216;-85
2022/12/02 12:15:48;;;;;;;30.07;14.97;;;-2.00;99.90;;;;;;5082727;28;20199;-73
2022/12/02 12:18:35;;;;;;;33.67;15.80;;;-1.90;99.90;;;;;;5080429;28;20198;-72
2022/12/02 12:21:03;;;;;;;34.43;15.63;;;-1.90;99.90;;;;;;5057314;28;20203;-73
2022/12/02 12:23:33;;;;;;;35.07;15.50;;;-2.00;99.90;;;;;;5101283;28;20193;-74
2022/12/02 12:26:00;;;;;;;37.03;16.20;;;-1.90;99.90;;;;;;5094446;28;20196;-84
2022/12/02 12:28:34;;;;;;;30.87;15.40;;;-1.80;99.90;;;;;;5088139;28;20212;-78
2022/12/02 12:31:04;;;;;;;33.87;15.70;;;-1.90;99.90;;;;;;5096336;28;20251;-83
2022/12/02 12:33:31;;;;;;;37.30;16.27;;;-2.00;99.90;;;;;;5083299;28;20210;-72
2022/12/02 12:35:58;;;;;;;33.10;15.73;;;-1.90;99.90;;;;;;5082932;28;20186;-74
2022/12/02 12:38:27;;;;;;;32.43;15.40;;;-1.90;99.90;;;;;;5087571;28;20634;-79
2022/12/02 12:40:57;;;;;;;33.80;16.03;;;-2.00;99.90;;;;;;5091785;28;20181;-72
2022/12/02 12:43:24;;;;;;;30.73;15.20;;;-2.00;99.90;;;;;;5079762;28;20214;-71
2022/12/02 12:45:51;;;;;;;33.50;16.20;;;-1.90;99.90;;;;;;5082501;28;20200;-73
2022/12/02 12:48:18;;;;;;;35.63;15.87;;;-2.00;99.90;;;;;;5082374;28;20211;-79
2022/12/02 12:50:45;;;;;;;37.97;16.67;;;-1.90;99.90;;;;;;5082130;28;20812;-81
2022/12/02 12:53:12;;;;;;;33.43;15.90;;;-1.90;99.90;;;;;;5082573;28;20220;-80
2022/12/02 12:55:40;;;;;;;34.07;15.13;;;-1.90;99.90;;;;;;5079857;28;20243;-78
2022/12/02 12:58:07;;;;;;;32.50;15.07;;;-1.90;99.90;;;;;;5083555;28;20547;-78